sensor_id;sensor_type;location;lat;lon;timestamp;P1;durP1;ratioP1;P2;durP2;ratioP2
78324;SDS011;67584;51.400;6.692;2023-03-12T05:56:14;11.27;;;6.38;;
78324;SDS011;67584;51.400;6.692;2023-03-12T07:10:15;6.68;;;3.72;;
78324;SDS011;67584;51.400;6.692;2023-03-12T07:12:46;5.22;;;3.60;;
78324;SDS011;67584;51.400;6.692;2023-03-12T07:17:42;2.83;;;2.53;;
78324;SDS011;67584;51.400;6.692;2023-03-12T07:20:08;5.20;;;3.15;;
78324;SDS011;67584;51.400;6.692;2023-03-12T07:22:42;11.00;;;4.30;;
78324;SDS011;67584;51.400;6.692;2023-03-12T07:25:10;4.47;;;3.80;;
78324;SDS011;67584;51.400;6.692;2023-03-12T07:27:39;6.10;;;3.92;;
78324;SDS011;67584;51.400;6.692;2023-03-12T07:30:13;5.13;;;2.83;;
78324;SDS011;67584;51.400;6.692;2023-03-12T07:32:47;4.45;;;3.35;;
78324;SDS011;67584;51.400;6.692;2023-03-12T07:35:18;8.18;;;3.42;;
78324;SDS011;67584;51.400;6.692;2023-03-12T07:40:12;7.57;;;2.88;;
78324;SDS011;67584;51.400;6.692;2023-03-12T07:42:38;6.40;;;2.63;;
78324;SDS011;67584;51.400;6.692;2023-03-12T07:45:04;4.30;;;2.55;;
78324;SDS011;67584;51.400;6.692;2023-03-12T07:47:32;5.50;;;3.28;;
78324;SDS011;67584;51.400;6.692;2023-03-12T07:49:58;6.82;;;3.13;;
78324;SDS011;67584;51.400;6.692;2023-03-12T07:52:26;4.60;;;3.20;;
78324;SDS011;67584;51.400;6.692;2023-03-12T07:54:54;6.75;;;3.60;;
78324;SDS011;67584;51.400;6.692;2023-03-12T07:57:21;7.53;;;3.50;;
78324;SDS011;67584;51.400;6.692;2023-03-12T07:59:53;4.13;;;2.90;;
78324;SDS011;67584;51.400;6.692;2023-03-12T08:02:21;3.35;;;2.35;;
78324;SDS011;67584;51.400;6.692;2023-03-12T08:04:47;8.88;;;3.28;;
78324;SDS011;67584;51.400;6.692;2023-03-12T08:07:15;4.97;;;2.95;;
78324;SDS011;67584;51.400;6.692;2023-03-12T08:09:45;5.50;;;2.88;;
78324;SDS011;67584;51.400;6.692;2023-03-12T08:12:16;8.82;;;3.72;;
78324;SDS011;67584;51.400;6.692;2023-03-12T08:17:08;3.80;;;3.35;;
78324;SDS011;67584;51.400;6.692;2023-03-12T08:19:45;3.53;;;2.53;;
78324;SDS011;67584;51.400;6.692;2023-03-12T08:22:11;7.55;;;3.67;;
78324;SDS011;67584;51.400;6.692;2023-03-12T08:24:40;5.80;;;4.22;;
78324;SDS011;67584;51.400;6.692;2023-03-12T08:27:19;2.72;;;2.45;;
78324;SDS011;67584;51.400;6.692;2023-03-12T08:29:59;4.68;;;3.53;;
78324;SDS011;67584;51.400;6.692;2023-03-12T08:32:29;4.35;;;3.00;;
78324;SDS011;67584;51.400;6.692;2023-03-12T08:34:54;4.70;;;2.67;;
78324;SDS011;67584;51.400;6.692;2023-03-12T08:37:21;5.30;;;2.90;;
78324;SDS011;67584;51.400;6.692;2023-03-12T08:39:50;6.80;;;4.10;;
78324;SDS011;67584;51.400;6.692;2023-03-12T08:42:16;6.63;;;4.07;;
78324;SDS011;67584;51.400;6.692;2023-03-12T08:44:51;3.90;;;3.50;;
78324;SDS011;67584;51.400;6.692;2023-03-12T08:47:23;6.75;;;3.70;;
78324;SDS011;67584;51.400;6.692;2023-03-12T08:49:49;4.25;;;3.50;;
78324;SDS011;67584;51.400;6.692;2023-03-12T08:52:23;4.55;;;3.35;;
78324;SDS011;67584;51.400;6.692;2023-03-12T08:54:58;4.47;;;3.55;;
78324;SDS011;67584;51.400;6.692;2023-03-12T08:57:29;5.05;;;3.65;;
78324;SDS011;67584;51.400;6.692;2023-03-12T08:59:55;4.78;;;3.20;;
78324;SDS011;67584;51.400;6.692;2023-03-12T09:02:24;7.65;;;3.95;;
78324;SDS011;67584;51.400;6.692;2023-03-12T09:04:53;6.22;;;4.35;;
78324;SDS011;67584;51.400;6.692;2023-03-12T09:07:19;7.28;;;4.10;;
78324;SDS011;67584;51.400;6.692;2023-03-12T09:09:49;5.47;;;4.10;;
78324;SDS011;67584;51.400;6.692;2023-03-12T09:12:24;7.00;;;4.97;;
78324;SDS011;67584;51.400;6.692;2023-03-12T09:14:50;10.07;;;6.45;;
78324;SDS011;67584;51.400;6.692;2023-03-12T09:17:16;6.85;;;4.65;;
78324;SDS011;67584;51.400;6.692;2023-03-12T09:19:46;6.85;;;5.30;;
78324;SDS011;67584;51.400;6.692;2023-03-12T09:22:11;6.78;;;5.10;;
78324;SDS011;67584;51.400;6.692;2023-03-12T09:24:54;6.05;;;3.50;;
78324;SDS011;67584;51.400;6.692;2023-03-12T09:27:20;8.98;;;4.95;;
78324;SDS011;67584;51.400;6.692;2023-03-12T09:29:51;8.52;;;5.13;;
78324;SDS011;67584;51.400;6.692;2023-03-12T09:32:34;7.30;;;5.78;;
78324;SDS011;67584;51.400;6.692;2023-03-12T09:35:03;10.02;;;5.60;;
78324;SDS011;67584;51.400;6.692;2023-03-12T09:37:33;10.90;;;5.60;;
78324;SDS011;67584;51.400;6.692;2023-03-12T09:40:24;7.47;;;4.78;;
78324;SDS011;67584;51.400;6.692;2023-03-12T09:42:59;8.43;;;6.00;;
78324;SDS011;67584;51.400;6.692;2023-03-12T09:45:48;9.48;;;5.85;;
78324;SDS011;67584;51.400;6.692;2023-03-12T09:48:33;10.32;;;6.07;;
78324;SDS011;67584;51.400;6.692;2023-03-12T09:51:02;7.07;;;5.45;;
78324;SDS011;67584;51.400;6.692;2023-03-12T09:53:34;9.02;;;6.47;;
78324;SDS011;67584;51.400;6.692;2023-03-12T09:56:10;9.23;;;6.78;;
78324;SDS011;67584;51.400;6.692;2023-03-12T09:58:39;9.00;;;6.00;;
78324;SDS011;67584;51.400;6.692;2023-03-12T10:01:27;6.97;;;5.43;;
78324;SDS011;67584;51.400;6.692;2023-03-12T10:07:12;12.85;;;8.93;;
78324;SDS011;67584;51.400;6.692;2023-03-12T10:12:59;10.23;;;7.07;;
78324;SDS011;67584;51.400;6.692;2023-03-12T10:24:47;10.98;;;7.05;;
78324;SDS011;67584;51.400;6.692;2023-03-12T10:27:22;11.82;;;8.35;;
78324;SDS011;67584;51.400;6.692;2023-03-12T10:29:52;11.07;;;8.10;;
78324;SDS011;67584;51.400;6.692;2023-03-12T10:32:24;11.35;;;7.82;;
78324;SDS011;67584;51.400;6.692;2023-03-12T10:35:12;8.80;;;6.82;;
78324;SDS011;67584;51.400;6.692;2023-03-12T10:40:32;11.63;;;6.15;;
78324;SDS011;67584;51.400;6.692;2023-03-12T10:43:01;11.20;;;8.02;;
78324;SDS011;67584;51.400;6.692;2023-03-12T10:48:03;10.30;;;5.20;;
78324;SDS011;67584;51.400;6.692;2023-03-12T10:50:41;14.23;;;8.30;;
78324;SDS011;67584;51.400;6.692;2023-03-12T10:53:39;11.57;;;8.63;;
78324;SDS011;67584;51.400;6.692;2023-03-12T10:56:22;11.43;;;8.00;;
78324;SDS011;67584;51.400;6.692;2023-03-12T10:58:48;10.90;;;7.38;;
78324;SDS011;67584;51.400;6.692;2023-03-12T11:01:25;10.40;;;7.57;;
78324;SDS011;67584;51.400;6.692;2023-03-12T11:04:15;17.00;;;10.45;;
78324;SDS011;67584;51.400;6.692;2023-03-12T11:07:01;11.88;;;7.57;;
78324;SDS011;67584;51.400;6.692;2023-03-12T11:09:27;10.45;;;6.88;;
78324;SDS011;67584;51.400;6.692;2023-03-12T11:11:52;13.00;;;8.93;;
78324;SDS011;67584;51.400;6.692;2023-03-12T11:14:24;17.90;;;11.35;;
78324;SDS011;67584;51.400;6.692;2023-03-12T11:16:54;10.75;;;8.43;;
78324;SDS011;67584;51.400;6.692;2023-03-12T11:19:40;12.13;;;8.13;;
78324;SDS011;67584;51.400;6.692;2023-03-12T11:22:09;12.65;;;7.65;;
78324;SDS011;67584;51.400;6.692;2023-03-12T11:24:53;11.95;;;9.13;;
78324;SDS011;67584;51.400;6.692;2023-03-12T11:27:34;15.00;;;9.82;;
78324;SDS011;67584;51.400;6.692;2023-03-12T11:30:05;14.48;;;9.23;;
78324;SDS011;67584;51.400;6.692;2023-03-12T11:32:42;14.40;;;9.52;;
78324;SDS011;67584;51.400;6.692;2023-03-12T11:35:25;11.70;;;8.35;;
78324;SDS011;67584;51.400;6.692;2023-03-12T11:38:32;11.98;;;8.88;;
78324;SDS011;67584;51.400;6.692;2023-03-12T11:56:55;13.13;;;8.57;;
78324;SDS011;67584;51.400;6.692;2023-03-12T12:08:42;10.10;;;8.10;;
78324;SDS011;67584;51.400;6.692;2023-03-12T12:14:02;11.82;;;8.65;;
78324;SDS011;67584;51.400;6.692;2023-03-12T12:16:45;17.25;;;8.75;;
78324;SDS011;67584;51.400;6.692;2023-03-12T12:22:23;17.02;;;8.48;;
78324;SDS011;67584;51.400;6.692;2023-03-12T12:27:58;16.88;;;8.32;;
78324;SDS011;67584;51.400;6.692;2023-03-12T12:36:43;15.43;;;8.73;;
78324;SDS011;67584;51.400;6.692;2023-03-12T12:39:16;20.50;;;9.75;;
78324;SDS011;67584;51.400;6.692;2023-03-12T12:42:07;23.40;;;11.60;;
78324;SDS011;67584;51.400;6.692;2023-03-12T12:44:42;18.33;;;9.25;;
78324;SDS011;67584;51.400;6.692;2023-03-12T12:47:14;17.98;;;9.15;;
78324;SDS011;67584;51.400;6.692;2023-03-12T12:49:45;21.33;;;9.23;;
78324;SDS011;67584;51.400;6.692;2023-03-12T12:52:21;16.13;;;7.80;;
78324;SDS011;67584;51.400;6.692;2023-03-12T12:57:51;21.17;;;8.00;;
78324;SDS011;67584;51.400;6.692;2023-03-12T13:02:54;18.75;;;8.45;;
78324;SDS011;67584;51.400;6.692;2023-03-12T13:05:25;14.77;;;6.03;;
78324;SDS011;67584;51.400;6.692;2023-03-12T13:08:03;20.27;;;7.07;;
78324;SDS011;67584;51.400;6.692;2023-03-12T13:12:58;17.55;;;6.72;;
78324;SDS011;67584;51.400;6.692;2023-03-12T13:15:43;17.55;;;7.47;;
78324;SDS011;67584;51.400;6.692;2023-03-12T13:18:25;23.13;;;7.50;;
78324;SDS011;67584;51.400;6.692;2023-03-12T13:36:24;13.23;;;4.95;;
78324;SDS011;67584;51.400;6.692;2023-03-12T13:41:31;14.38;;;5.85;;
78324;SDS011;67584;51.400;6.692;2023-03-12T13:46:46;14.80;;;6.57;;
78324;SDS011;67584;51.400;6.692;2023-03-12T13:49:13;15.63;;;5.13;;
78324;SDS011;67584;51.400;6.692;2023-03-12T13:51:45;15.52;;;5.00;;
78324;SDS011;67584;51.400;6.692;2023-03-12T13:54:19;9.82;;;4.30;;
78324;SDS011;67584;51.400;6.692;2023-03-12T13:56:54;24.05;;;7.35;;
78324;SDS011;67584;51.400;6.692;2023-03-12T13:59:26;17.15;;;6.50;;
78324;SDS011;67584;51.400;6.692;2023-03-12T14:01:54;14.35;;;3.88;;
78324;SDS011;67584;51.400;6.692;2023-03-12T14:04:24;15.52;;;4.45;;
78324;SDS011;67584;51.400;6.692;2023-03-12T14:09:27;12.88;;;4.38;;
78324;SDS011;67584;51.400;6.692;2023-03-12T14:12:12;18.52;;;5.35;;
78324;SDS011;67584;51.400;6.692;2023-03-12T14:15:01;11.35;;;4.78;;
78324;SDS011;67584;51.400;6.692;2023-03-12T14:17:42;20.55;;;6.47;;
78324;SDS011;67584;51.400;6.692;2023-03-12T14:20:16;19.73;;;5.38;;
78324;SDS011;67584;51.400;6.692;2023-03-12T14:22:43;12.95;;;4.95;;
78324;SDS011;67584;51.400;6.692;2023-03-12T14:28:02;16.98;;;5.97;;
78324;SDS011;67584;51.400;6.692;2023-03-12T14:30:38;13.82;;;4.45;;
78324;SDS011;67584;51.400;6.692;2023-03-12T14:33:09;17.98;;;4.93;;
78324;SDS011;67584;51.400;6.692;2023-03-12T14:35:42;17.70;;;5.13;;
78324;SDS011;67584;51.400;6.692;2023-03-12T14:38:16;18.15;;;3.97;;
78324;SDS011;67584;51.400;6.692;2023-03-12T14:41:06;15.25;;;3.90;;
78324;SDS011;67584;51.400;6.692;2023-03-12T14:43:45;17.27;;;5.00;;
78324;SDS011;67584;51.400;6.692;2023-03-12T14:46:16;11.40;;;3.63;;
78324;SDS011;67584;51.400;6.692;2023-03-12T14:48:46;16.02;;;4.53;;
78324;SDS011;67584;51.400;6.692;2023-03-12T14:51:17;17.58;;;5.38;;
78324;SDS011;67584;51.400;6.692;2023-03-12T14:53:48;15.55;;;3.78;;
78324;SDS011;67584;51.400;6.692;2023-03-12T14:56:25;13.13;;;4.18;;
78324;SDS011;67584;51.400;6.692;2023-03-12T14:58:54;14.88;;;3.90;;
78324;SDS011;67584;51.400;6.692;2023-03-12T15:01:22;10.95;;;3.40;;
78324;SDS011;67584;51.400;6.692;2023-03-12T15:03:51;11.40;;;3.75;;
78324;SDS011;67584;51.400;6.692;2023-03-12T15:06:33;18.92;;;4.95;;
78324;SDS011;67584;51.400;6.692;2023-03-12T15:09:06;9.73;;;3.60;;
78324;SDS011;67584;51.400;6.692;2023-03-12T15:11:53;10.00;;;3.35;;
78324;SDS011;67584;51.400;6.692;2023-03-12T15:14:22;13.50;;;4.38;;
78324;SDS011;67584;51.400;6.692;2023-03-12T15:16:48;12.15;;;4.05;;
78324;SDS011;67584;51.400;6.692;2023-03-12T15:19:16;15.05;;;4.65;;
78324;SDS011;67584;51.400;6.692;2023-03-12T15:21:45;9.30;;;4.00;;
78324;SDS011;67584;51.400;6.692;2023-03-12T15:24:12;12.63;;;3.97;;
78324;SDS011;67584;51.400;6.692;2023-03-12T15:26:38;10.25;;;3.38;;
78324;SDS011;67584;51.400;6.692;2023-03-12T15:31:54;16.75;;;3.70;;
78324;SDS011;67584;51.400;6.692;2023-03-12T15:34:33;11.60;;;4.70;;
78324;SDS011;67584;51.400;6.692;2023-03-12T15:37:02;16.48;;;4.10;;
78324;SDS011;67584;51.400;6.692;2023-03-12T15:39:51;16.58;;;4.55;;
78324;SDS011;67584;51.400;6.692;2023-03-12T15:42:18;16.42;;;4.03;;
78324;SDS011;67584;51.400;6.692;2023-03-12T15:44:54;11.73;;;3.20;;
78324;SDS011;67584;51.400;6.692;2023-03-12T15:47:23;14.30;;;4.00;;
78324;SDS011;67584;51.400;6.692;2023-03-12T15:49:55;16.75;;;3.40;;
78324;SDS011;67584;51.400;6.692;2023-03-12T15:52:24;11.65;;;3.67;;
78324;SDS011;67584;51.400;6.692;2023-03-12T15:54:58;13.63;;;3.30;;
78324;SDS011;67584;51.400;6.692;2023-03-12T15:57:43;20.63;;;4.32;;
78324;SDS011;67584;51.400;6.692;2023-03-12T16:05:10;12.88;;;3.42;;
78324;SDS011;67584;51.400;6.692;2023-03-12T16:07:36;17.95;;;3.90;;
78324;SDS011;67584;51.400;6.692;2023-03-12T16:10:02;13.50;;;4.13;;
78324;SDS011;67584;51.400;6.692;2023-03-12T16:12:30;13.52;;;3.35;;
78324;SDS011;67584;51.400;6.692;2023-03-12T16:14:55;13.13;;;2.60;;
78324;SDS011;67584;51.400;6.692;2023-03-12T16:17:21;19.00;;;3.70;;
78324;SDS011;67584;51.400;6.692;2023-03-12T16:19:50;12.50;;;3.63;;
78324;SDS011;67584;51.400;6.692;2023-03-12T16:22:16;17.67;;;4.38;;
78324;SDS011;67584;51.400;6.692;2023-03-12T16:24:44;13.13;;;3.20;;
78324;SDS011;67584;51.400;6.692;2023-03-12T16:27:11;15.27;;;3.50;;
78324;SDS011;67584;51.400;6.692;2023-03-12T16:29:39;12.68;;;3.80;;
78324;SDS011;67584;51.400;6.692;2023-03-12T16:32:10;17.95;;;4.78;;
78324;SDS011;67584;51.400;6.692;2023-03-12T16:34:37;11.10;;;3.75;;
78324;SDS011;67584;51.400;6.692;2023-03-12T16:37:03;12.32;;;2.97;;
78324;SDS011;67584;51.400;6.692;2023-03-12T16:39:29;10.38;;;4.10;;
78324;SDS011;67584;51.400;6.692;2023-03-12T16:42:00;9.90;;;3.13;;
78324;SDS011;67584;51.400;6.692;2023-03-12T16:44:31;16.02;;;3.92;;
78324;SDS011;67584;51.400;6.692;2023-03-12T16:46:59;18.00;;;3.78;;
78324;SDS011;67584;51.400;6.692;2023-03-12T16:49:25;12.13;;;3.38;;
78324;SDS011;67584;51.400;6.692;2023-03-12T16:51:51;14.20;;;3.72;;
78324;SDS011;67584;51.400;6.692;2023-03-12T16:54:17;10.90;;;3.15;;
78324;SDS011;67584;51.400;6.692;2023-03-12T16:56:46;16.70;;;3.80;;
78324;SDS011;67584;51.400;6.692;2023-03-12T16:59:16;13.50;;;3.83;;
78324;SDS011;67584;51.400;6.692;2023-03-12T17:01:49;9.52;;;2.85;;
78324;SDS011;67584;51.400;6.692;2023-03-12T17:04:15;17.08;;;4.03;;
78324;SDS011;67584;51.400;6.692;2023-03-12T17:06:41;11.10;;;3.33;;
78324;SDS011;67584;51.400;6.692;2023-03-12T17:09:06;13.93;;;3.38;;
78324;SDS011;67584;51.400;6.692;2023-03-12T17:11:33;12.63;;;3.25;;
78324;SDS011;67584;51.400;6.692;2023-03-12T17:14:24;13.60;;;3.60;;
78324;SDS011;67584;51.400;6.692;2023-03-12T17:17:02;9.27;;;3.33;;
78324;SDS011;67584;51.400;6.692;2023-03-12T17:19:27;18.83;;;4.65;;
78324;SDS011;67584;51.400;6.692;2023-03-12T17:21:53;18.30;;;4.15;;
78324;SDS011;67584;51.400;6.692;2023-03-12T17:24:19;17.17;;;4.05;;
78324;SDS011;67584;51.400;6.692;2023-03-12T17:26:47;14.70;;;3.60;;
78324;SDS011;67584;51.400;6.692;2023-03-12T17:29:18;9.98;;;3.05;;
78324;SDS011;67584;51.400;6.692;2023-03-12T17:31:44;9.27;;;3.05;;
78324;SDS011;67584;51.400;6.692;2023-03-12T17:34:10;15.02;;;3.95;;
78324;SDS011;67584;51.400;6.692;2023-03-12T17:36:36;14.75;;;5.15;;
78324;SDS011;67584;51.400;6.692;2023-03-12T17:39:02;11.57;;;3.20;;
78324;SDS011;67584;51.400;6.692;2023-03-12T17:41:29;14.23;;;3.22;;
78324;SDS011;67584;51.400;6.692;2023-03-12T17:43:56;17.02;;;4.93;;
78324;SDS011;67584;51.400;6.692;2023-03-12T17:46:25;12.63;;;3.28;;
78324;SDS011;67584;51.400;6.692;2023-03-12T17:48:52;19.13;;;4.20;;
78324;SDS011;67584;51.400;6.692;2023-03-12T17:51:19;14.65;;;3.78;;
78324;SDS011;67584;51.400;6.692;2023-03-12T17:56:13;11.77;;;3.28;;
78324;SDS011;67584;51.400;6.692;2023-03-12T17:58:41;16.30;;;3.58;;
78324;SDS011;67584;51.400;6.692;2023-03-12T18:01:08;13.50;;;4.60;;
78324;SDS011;67584;51.400;6.692;2023-03-12T18:03:34;12.10;;;4.20;;
78324;SDS011;67584;51.400;6.692;2023-03-12T18:06:00;11.63;;;4.07;;
78324;SDS011;67584;51.400;6.692;2023-03-12T18:08:25;20.70;;;3.78;;
78324;SDS011;67584;51.400;6.692;2023-03-12T18:10:51;20.23;;;5.25;;
78324;SDS011;67584;51.400;6.692;2023-03-12T18:13:17;16.02;;;4.18;;
78324;SDS011;67584;51.400;6.692;2023-03-12T18:15:52;14.50;;;3.80;;
78324;SDS011;67584;51.400;6.692;2023-03-12T18:18:20;15.38;;;4.07;;
78324;SDS011;67584;51.400;6.692;2023-03-12T18:20:46;17.73;;;4.55;;
78324;SDS011;67584;51.400;6.692;2023-03-12T18:23:13;14.95;;;4.13;;
78324;SDS011;67584;51.400;6.692;2023-03-12T18:25:39;16.95;;;4.32;;
78324;SDS011;67584;51.400;6.692;2023-03-12T18:28:05;16.05;;;4.10;;
78324;SDS011;67584;51.400;6.692;2023-03-12T18:30:31;13.57;;;4.07;;
78324;SDS011;67584;51.400;6.692;2023-03-12T18:32:57;17.05;;;5.70;;
78324;SDS011;67584;51.400;6.692;2023-03-12T18:35:23;10.70;;;4.18;;
78324;SDS011;67584;51.400;6.692;2023-03-12T18:37:53;16.05;;;4.22;;
78324;SDS011;67584;51.400;6.692;2023-03-12T18:40:19;14.32;;;5.25;;
78324;SDS011;67584;51.400;6.692;2023-03-12T18:42:45;16.58;;;4.25;;
78324;SDS011;67584;51.400;6.692;2023-03-12T18:45:11;15.50;;;4.63;;
78324;SDS011;67584;51.400;6.692;2023-03-12T18:47:37;20.80;;;4.30;;
78324;SDS011;67584;51.400;6.692;2023-03-12T18:50:07;14.82;;;3.47;;
78324;SDS011;67584;51.400;6.692;2023-03-12T18:52:34;19.55;;;4.05;;
78324;SDS011;67584;51.400;6.692;2023-03-12T18:54:59;13.70;;;4.40;;
78324;SDS011;67584;51.400;6.692;2023-03-12T18:57:25;13.65;;;3.85;;
78324;SDS011;67584;51.400;6.692;2023-03-12T18:59:51;19.10;;;5.15;;
78324;SDS011;67584;51.400;6.692;2023-03-12T19:02:17;19.02;;;6.32;;
78324;SDS011;67584;51.400;6.692;2023-03-12T19:04:42;14.93;;;3.83;;
78324;SDS011;67584;51.400;6.692;2023-03-12T19:07:08;10.73;;;3.45;;
78324;SDS011;67584;51.400;6.692;2023-03-12T19:12:02;12.95;;;4.50;;
78324;SDS011;67584;51.400;6.692;2023-03-12T19:14:28;10.75;;;3.10;;
78324;SDS011;67584;51.400;6.692;2023-03-12T19:16:55;14.80;;;4.25;;
78324;SDS011;67584;51.400;6.692;2023-03-12T19:19:21;13.93;;;3.38;;
78324;SDS011;67584;51.400;6.692;2023-03-12T19:21:47;12.50;;;4.47;;
78324;SDS011;67584;51.400;6.692;2023-03-12T19:24:13;16.05;;;4.18;;
78324;SDS011;67584;51.400;6.692;2023-03-12T19:26:39;11.02;;;3.97;;
78324;SDS011;67584;51.400;6.692;2023-03-12T19:29:05;11.32;;;3.90;;
78324;SDS011;67584;51.400;6.692;2023-03-12T19:31:31;15.02;;;3.38;;
78324;SDS011;67584;51.400;6.692;2023-03-12T19:33:56;10.52;;;3.47;;
78324;SDS011;67584;51.400;6.692;2023-03-12T19:36:22;7.05;;;2.92;;
78324;SDS011;67584;51.400;6.692;2023-03-12T19:38:47;17.13;;;4.43;;
78324;SDS011;67584;51.400;6.692;2023-03-12T19:41:13;17.42;;;4.50;;
78324;SDS011;67584;51.400;6.692;2023-03-12T19:43:39;15.13;;;3.10;;
78324;SDS011;67584;51.400;6.692;2023-03-12T19:46:05;14.30;;;4.05;;
78324;SDS011;67584;51.400;6.692;2023-03-12T19:48:31;20.23;;;5.07;;
78324;SDS011;67584;51.400;6.692;2023-03-12T19:51:03;12.65;;;3.92;;
78324;SDS011;67584;51.400;6.692;2023-03-12T19:53:30;17.95;;;4.15;;
78324;SDS011;67584;51.400;6.692;2023-03-12T19:55:56;16.35;;;4.78;;
78324;SDS011;67584;51.400;6.692;2023-03-12T19:58:21;9.73;;;3.47;;
78324;SDS011;67584;51.400;6.692;2023-03-12T20:00:47;9.30;;;3.78;;
78324;SDS011;67584;51.400;6.692;2023-03-12T20:03:13;10.00;;;3.75;;
78324;SDS011;67584;51.400;6.692;2023-03-12T20:05:43;13.85;;;3.53;;
78324;SDS011;67584;51.400;6.692;2023-03-12T20:08:09;9.05;;;3.67;;
78324;SDS011;67584;51.400;6.692;2023-03-12T20:10:35;15.32;;;4.22;;
78324;SDS011;67584;51.400;6.692;2023-03-12T20:13:02;11.77;;;3.30;;
78324;SDS011;67584;51.400;6.692;2023-03-12T20:15:31;15.18;;;3.80;;
78324;SDS011;67584;51.400;6.692;2023-03-12T20:17:57;12.80;;;4.18;;
78324;SDS011;67584;51.400;6.692;2023-03-12T20:20:23;14.90;;;4.07;;
78324;SDS011;67584;51.400;6.692;2023-03-12T20:22:49;10.88;;;2.67;;
78324;SDS011;67584;51.400;6.692;2023-03-12T20:25:15;14.85;;;3.10;;
78324;SDS011;67584;51.400;6.692;2023-03-12T20:27:41;10.77;;;3.45;;
78324;SDS011;67584;51.400;6.692;2023-03-12T20:30:08;11.48;;;3.47;;
78324;SDS011;67584;51.400;6.692;2023-03-12T20:32:34;14.45;;;3.60;;
78324;SDS011;67584;51.400;6.692;2023-03-12T20:35:00;12.10;;;3.92;;
78324;SDS011;67584;51.400;6.692;2023-03-12T20:37:26;15.35;;;3.83;;
78324;SDS011;67584;51.400;6.692;2023-03-12T20:39:52;13.82;;;4.05;;
78324;SDS011;67584;51.400;6.692;2023-03-12T20:42:17;10.57;;;4.30;;
78324;SDS011;67584;51.400;6.692;2023-03-12T20:44:43;15.52;;;4.63;;
78324;SDS011;67584;51.400;6.692;2023-03-12T20:47:15;9.70;;;3.53;;
78324;SDS011;67584;51.400;6.692;2023-03-12T20:49:44;16.52;;;4.72;;
78324;SDS011;67584;51.400;6.692;2023-03-12T20:52:10;16.52;;;4.93;;
78324;SDS011;67584;51.400;6.692;2023-03-12T20:54:35;13.35;;;3.97;;
78324;SDS011;67584;51.400;6.692;2023-03-12T20:57:01;12.13;;;3.83;;
78324;SDS011;67584;51.400;6.692;2023-03-12T20:59:27;16.00;;;4.68;;
78324;SDS011;67584;51.400;6.692;2023-03-12T21:01:52;13.98;;;4.22;;
78324;SDS011;67584;51.400;6.692;2023-03-12T21:04:18;14.07;;;3.92;;
78324;SDS011;67584;51.400;6.692;2023-03-12T21:06:44;15.57;;;4.28;;
78324;SDS011;67584;51.400;6.692;2023-03-12T21:09:11;11.25;;;3.60;;
78324;SDS011;67584;51.400;6.692;2023-03-12T21:11:37;19.58;;;5.72;;
78324;SDS011;67584;51.400;6.692;2023-03-12T21:14:04;19.67;;;4.60;;
78324;SDS011;67584;51.400;6.692;2023-03-12T21:16:30;17.20;;;4.40;;
78324;SDS011;67584;51.400;6.692;2023-03-12T21:18:56;15.57;;;3.90;;
78324;SDS011;67584;51.400;6.692;2023-03-12T21:21:22;12.48;;;4.13;;
78324;SDS011;67584;51.400;6.692;2023-03-12T21:23:48;16.15;;;4.72;;
78324;SDS011;67584;51.400;6.692;2023-03-12T21:26:14;15.70;;;5.22;;
78324;SDS011;67584;51.400;6.692;2023-03-12T21:28:43;12.02;;;3.20;;
78324;SDS011;67584;51.400;6.692;2023-03-12T21:31:10;13.75;;;4.40;;
78324;SDS011;67584;51.400;6.692;2023-03-12T21:36:04;10.45;;;4.53;;
78324;SDS011;67584;51.400;6.692;2023-03-12T21:38:31;16.60;;;3.67;;
78324;SDS011;67584;51.400;6.692;2023-03-12T21:41:05;11.85;;;3.85;;
78324;SDS011;67584;51.400;6.692;2023-03-12T21:43:32;19.20;;;5.00;;
78324;SDS011;67584;51.400;6.692;2023-03-12T21:46:05;11.70;;;3.67;;
78324;SDS011;67584;51.400;6.692;2023-03-12T21:48:41;14.98;;;4.03;;
78324;SDS011;67584;51.400;6.692;2023-03-12T21:51:09;11.23;;;3.35;;
78324;SDS011;67584;51.400;6.692;2023-03-12T21:53:36;13.90;;;4.72;;
78324;SDS011;67584;51.400;6.692;2023-03-12T21:56:03;14.63;;;4.47;;
78324;SDS011;67584;51.400;6.692;2023-03-12T21:58:31;14.07;;;4.38;;
78324;SDS011;67584;51.400;6.692;2023-03-12T22:01:05;11.55;;;3.60;;
78324;SDS011;67584;51.400;6.692;2023-03-12T22:03:33;15.75;;;3.60;;
78324;SDS011;67584;51.400;6.692;2023-03-12T22:05:59;15.13;;;4.15;;
78324;SDS011;67584;51.400;6.692;2023-03-12T22:08:25;14.80;;;4.45;;
78324;SDS011;67584;51.400;6.692;2023-03-12T22:10:51;17.15;;;3.72;;
78324;SDS011;67584;51.400;6.692;2023-03-12T22:13:17;14.73;;;4.22;;
78324;SDS011;67584;51.400;6.692;2023-03-12T22:15:46;13.10;;;3.72;;
78324;SDS011;67584;51.400;6.692;2023-03-12T22:18:17;11.73;;;3.83;;
78324;SDS011;67584;51.400;6.692;2023-03-12T22:20:48;18.17;;;3.50;;
78324;SDS011;67584;51.400;6.692;2023-03-12T22:23:15;14.55;;;4.07;;
78324;SDS011;67584;51.400;6.692;2023-03-12T22:25:45;12.63;;;3.25;;
78324;SDS011;67584;51.400;6.692;2023-03-12T22:28:11;13.05;;;4.25;;
78324;SDS011;67584;51.400;6.692;2023-03-12T22:30:37;12.25;;;4.55;;
78324;SDS011;67584;51.400;6.692;2023-03-12T22:33:03;10.77;;;3.78;;
78324;SDS011;67584;51.400;6.692;2023-03-12T22:35:29;10.23;;;3.80;;
78324;SDS011;67584;51.400;6.692;2023-03-12T22:37:55;12.80;;;3.13;;
78324;SDS011;67584;51.400;6.692;2023-03-12T22:40:20;10.18;;;2.90;;
78324;SDS011;67584;51.400;6.692;2023-03-12T22:42:49;12.98;;;3.58;;
78324;SDS011;67584;51.400;6.692;2023-03-12T22:45:16;12.13;;;3.70;;
78324;SDS011;67584;51.400;6.692;2023-03-12T22:47:42;9.50;;;3.55;;
78324;SDS011;67584;51.400;6.692;2023-03-12T22:50:09;12.32;;;3.15;;
78324;SDS011;67584;51.400;6.692;2023-03-12T22:52:36;14.38;;;4.30;;
78324;SDS011;67584;51.400;6.692;2023-03-12T22:55:02;11.57;;;3.20;;
78324;SDS011;67584;51.400;6.692;2023-03-12T22:57:28;10.48;;;2.92;;
78324;SDS011;67584;51.400;6.692;2023-03-12T22:59:56;10.23;;;3.03;;
78324;SDS011;67584;51.400;6.692;2023-03-12T23:02:22;15.48;;;3.33;;
78324;SDS011;67584;51.400;6.692;2023-03-12T23:04:48;8.68;;;3.08;;
78324;SDS011;67584;51.400;6.692;2023-03-12T23:07:14;10.10;;;2.95;;
78324;SDS011;67584;51.400;6.692;2023-03-12T23:09:39;9.55;;;3.13;;
78324;SDS011;67584;51.400;6.692;2023-03-12T23:12:08;12.27;;;3.50;;
78324;SDS011;67584;51.400;6.692;2023-03-12T23:14:34;9.43;;;3.72;;
78324;SDS011;67584;51.400;6.692;2023-03-12T23:17:00;14.02;;;2.88;;
78324;SDS011;67584;51.400;6.692;2023-03-12T23:19:26;10.23;;;2.85;;
78324;SDS011;67584;51.400;6.692;2023-03-12T23:21:56;11.60;;;3.90;;
78324;SDS011;67584;51.400;6.692;2023-03-12T23:24:21;9.32;;;3.20;;
78324;SDS011;67584;51.400;6.692;2023-03-12T23:26:50;8.20;;;2.80;;
78324;SDS011;67584;51.400;6.692;2023-03-12T23:29:17;11.20;;;3.05;;
78324;SDS011;67584;51.400;6.692;2023-03-12T23:31:43;12.07;;;3.45;;
78324;SDS011;67584;51.400;6.692;2023-03-12T23:34:08;11.55;;;3.65;;
78324;SDS011;67584;51.400;6.692;2023-03-12T23:36:34;13.10;;;3.75;;
78324;SDS011;67584;51.400;6.692;2023-03-12T23:39:01;5.38;;;2.58;;
78324;SDS011;67584;51.400;6.692;2023-03-12T23:41:27;11.70;;;3.33;;
78324;SDS011;67584;51.400;6.692;2023-03-12T23:43:54;16.17;;;4.15;;
78324;SDS011;67584;51.400;6.692;2023-03-12T23:46:21;12.15;;;3.03;;
78324;SDS011;67584;51.400;6.692;2023-03-12T23:48:47;17.80;;;3.45;;
78324;SDS011;67584;51.400;6.692;2023-03-12T23:51:14;8.88;;;2.80;;
78324;SDS011;67584;51.400;6.692;2023-03-12T23:53:45;8.50;;;2.38;;
78324;SDS011;67584;51.400;6.692;2023-03-12T23:56:16;9.38;;;2.70;;
78324;SDS011;67584;51.400;6.692;2023-03-12T23:58:44;11.18;;;2.90;;
